Time;durP1;ratioP1;P1;durP2;ratioP2;P2;SDS_P1;SDS_P2;PMS_P1;PMS_P2;Temp;Humidity;BMP_temperature;BMP_pressure;BME280_temperature;BME280_humidity;BME280_pressure;Samples;Min_cycle;Max_cycle;Signal;HPM_P1;HPM_P2
2022/07/27 00:01:21;;;;;;;1.33;1.23;;;18.20;97.90;;;;;;6159456;23;20492;-79
2022/07/27 00:03:47;;;;;;;2.78;1.60;;;18.20;97.40;;;;;;6160339;23;20169;-79
2022/07/27 00:06:13;;;;;;;1.85;1.75;;;18.30;97.50;;;;;;6159020;23;20153;-79
2022/07/27 00:08:39;;;;;;;2.75;1.90;;;18.30;97.60;;;;;;6158105;23;20149;-79
2022/07/27 00:11:04;;;;;;;2.00;1.88;;;18.30;97.60;;;;;;6159633;23;20153;-79
2022/07/27 00:13:30;;;;;;;1.83;1.73;;;18.20;98.30;;;;;;6160005;23;20166;-79
2022/07/27 00:15:56;;;;;;;1.58;1.52;;;18.10;98.90;;;;;;6160880;23;20149;-79
2022/07/27 00:18:22;;;;;;;2.70;1.83;;;18.10;99.10;;;;;;6160566;23;20173;-79
2022/07/27 00:20:48;;;;;;;2.03;1.92;;;18.00;99.40;;;;;;6160160;23;20177;-79
2022/07/27 00:23:13;;;;;;;2.53;1.70;;;17.90;99.70;;;;;;6159891;23;20201;-79
2022/07/27 00:25:39;;;;;;;3.85;1.88;;;18.00;99.80;;;;;;6160975;23;20231;-79
2022/07/27 00:28:05;;;;;;;1.92;1.80;;;17.90;99.90;;;;;;6160628;23;20149;-79
2022/07/27 00:30:31;;;;;;;2.17;1.75;;;17.80;99.90;;;;;;6160249;23;20237;-79
2022/07/27 00:32:57;;;;;;;2.15;1.70;;;17.80;99.90;;;;;;6159971;23;20169;-79
2022/07/27 00:35:22;;;;;;;1.80;1.70;;;17.70;99.90;;;;;;6160358;23;20177;-79
2022/07/27 00:37:48;;;;;;;1.60;1.50;;;17.60;99.90;;;;;;6161135;23;20154;-79
2022/07/27 00:40:14;;;;;;;1.95;1.77;;;17.60;99.90;;;;;;6160623;23;20192;-80
2022/07/27 00:42:40;;;;;;;2.58;1.80;;;17.60;99.90;;;;;;6160936;23;20165;-80
2022/07/27 00:45:06;;;;;;;4.63;2.03;;;17.50;99.90;;;;;;6135572;23;20164;-80
2022/07/27 00:47:31;;;;;;;2.15;1.90;;;17.50;99.90;;;;;;6135316;23;20153;-80
2022/07/27 00:49:58;;;;;;;3.40;2.28;;;17.40;99.90;;;;;;6161747;23;20161;-79
2022/07/27 00:52:24;;;;;;;3.15;2.10;;;17.40;99.90;;;;;;6161956;23;20646;-79
2022/07/27 00:54:50;;;;;;;1.85;1.75;;;17.30;99.90;;;;;;6161856;23;20150;-79
2022/07/27 00:57:16;;;;;;;2.40;2.00;;;17.40;99.90;;;;;;6160393;23;20157;-79
2022/07/27 00:59:42;;;;;;;2.67;1.95;;;17.40;99.90;;;;;;6135407;23;20587;-80
2022/07/27 01:02:08;;;;;;;3.28;1.92;;;17.40;99.90;;;;;;6161524;23;20220;-80
2022/07/27 01:04:34;;;;;;;2.40;1.92;;;17.30;99.90;;;;;;6161902;23;20176;-80
2022/07/27 01:07:02;;;;;;;1.90;1.80;;;17.30;99.90;;;;;;6135047;23;20153;-80
2022/07/27 01:12:16;;;;;;;2.47;2.15;;;17.30;99.90;;;;;;6162409;23;20520;-81
2022/07/27 01:14:42;;;;;;;2.47;2.30;;;17.30;99.90;;;;;;6163791;23;20156;-81
2022/07/27 01:17:08;;;;;;;2.30;2.13;;;17.30;99.90;;;;;;6163517;23;20161;-81
2022/07/27 01:19:34;;;;;;;2.33;2.13;;;17.30;99.90;;;;;;6162378;23;20637;-81
2022/07/27 01:22:04;;;;;;;2.45;2.25;;;17.20;99.90;;;;;;6136448;23;20188;-81
2022/07/27 01:24:29;;;;;;;2.53;2.20;;;17.30;99.90;;;;;;6163556;23;20251;-80
2022/07/27 01:26:55;;;;;;;2.75;2.28;;;17.30;99.90;;;;;;6162957;23;20241;-79
2022/07/27 01:29:21;;;;;;;3.50;2.25;;;17.30;99.90;;;;;;6163567;23;20180;-79
2022/07/27 01:31:47;;;;;;;2.08;1.98;;;17.30;99.90;;;;;;6164047;23;20237;-79
2022/07/27 01:34:12;;;;;;;2.38;2.17;;;17.20;99.90;;;;;;6163158;23;20240;-79
2022/07/27 01:36:38;;;;;;;2.58;2.38;;;17.20;99.90;;;;;;6166089;23;20149;-81
2022/07/27 01:39:04;;;;;;;3.53;2.17;;;17.20;99.90;;;;;;6168206;23;20181;-81
2022/07/27 01:41:29;;;;;;;2.50;2.33;;;17.30;99.90;;;;;;6162505;23;20149;-81
2022/07/27 01:43:55;;;;;;;4.07;2.67;;;17.30;99.90;;;;;;6162933;23;20176;-81
2022/07/27 01:46:21;;;;;;;4.05;2.55;;;17.20;99.90;;;;;;6162486;23;20204;-79
2022/07/27 01:48:47;;;;;;;2.40;2.20;;;17.10;99.90;;;;;;6163527;23;20153;-82
2022/07/27 01:51:13;;;;;;;2.58;2.40;;;16.90;99.90;;;;;;6135913;23;20160;-81
2022/07/27 01:53:38;;;;;;;2.47;2.28;;;16.90;99.90;;;;;;6162278;23;20626;-82
2022/07/27 01:56:11;;;;;;;2.50;2.35;;;16.80;99.90;;;;;;6164068;23;20653;-82
2022/07/27 01:58:38;;;;;;;2.85;2.65;;;16.80;99.90;;;;;;6137033;23;20169;-81
2022/07/27 02:01:05;;;;;;;2.65;2.45;;;16.70;99.90;;;;;;6167222;23;20145;-81
2022/07/27 02:03:31;;;;;;;2.95;2.70;;;16.60;99.90;;;;;;6140393;23;20173;-84
2022/07/27 02:05:57;;;;;;;2.60;2.20;;;16.60;99.90;;;;;;6137863;23;20228;-82
2022/07/27 02:08:22;;;;;;;2.35;2.10;;;16.50;99.90;;;;;;6163812;23;20153;-82
2022/07/27 02:13:33;;;;;;;2.50;2.30;;;16.50;99.90;;;;;;6165179;23;20236;-82
2022/07/27 02:15:59;;;;;;;3.05;2.75;;;16.50;99.90;;;;;;6160030;23;20232;-79
2022/07/27 02:18:24;;;;;;;3.80;2.78;;;16.50;99.90;;;;;;6156460;23;20540;-79
2022/07/27 02:20:50;;;;;;;2.50;2.30;;;16.50;99.90;;;;;;6163386;23;20200;-79
2022/07/27 02:23:16;;;;;;;4.05;2.42;;;16.40;99.90;;;;;;6155800;23;20248;-81
2022/07/27 02:25:42;;;;;;;3.78;2.60;;;16.50;99.90;;;;;;6155839;23;20487;-79
2022/07/27 02:28:08;;;;;;;2.45;2.30;;;16.50;99.90;;;;;;6155253;23;20146;-78
2022/07/27 02:30:33;;;;;;;3.25;2.50;;;16.40;99.90;;;;;;6155725;23;20154;-77
2022/07/27 02:32:59;;;;;;;5.30;3.00;;;16.40;99.90;;;;;;6155728;23;20480;-78
2022/07/27 02:35:25;;;;;;;2.83;2.50;;;16.40;99.90;;;;;;6155591;23;20149;-77
2022/07/27 02:37:51;;;;;;;3.08;2.78;;;16.40;99.90;;;;;;6128894;23;20184;-79
2022/07/27 02:40:17;;;;;;;2.80;2.50;;;16.30;99.90;;;;;;6129115;23;20570;-79
2022/07/27 02:42:43;;;;;;;2.47;2.28;;;16.30;99.90;;;;;;6155492;23;20166;-79
2022/07/27 02:45:09;;;;;;;3.45;2.55;;;16.30;99.90;;;;;;6155720;23;20153;-79
2022/07/27 02:47:35;;;;;;;2.30;2.10;;;16.20;99.90;;;;;;6129330;23;20505;-79
2022/07/27 02:50:01;;;;;;;3.90;2.53;;;16.20;99.90;;;;;;6135121;23;20184;-82
2022/07/27 02:52:27;;;;;;;3.60;2.53;;;16.20;99.90;;;;;;6167787;23;20198;-81
2022/07/27 02:54:53;;;;;;;2.67;2.47;;;16.20;99.90;;;;;;6140761;23;20244;-81
2022/07/27 02:57:18;;;;;;;2.53;2.33;;;16.20;99.90;;;;;;6168234;23;20149;-81
2022/07/27 02:59:44;;;;;;;5.00;2.92;;;16.20;99.90;;;;;;6167529;23;20169;-80
2022/07/27 03:02:10;;;;;;;2.53;2.33;;;16.10;99.90;;;;;;6140939;23;20184;-81
2022/07/27 03:04:35;;;;;;;2.92;2.20;;;16.10;99.90;;;;;;6140129;23;20157;-80
2022/07/27 03:07:01;;;;;;;4.03;2.30;;;16.10;99.90;;;;;;6130513;23;20157;-78
2022/07/27 03:09:27;;;;;;;2.75;2.35;;;16.10;99.90;;;;;;6138972;23;20193;-77
2022/07/27 03:11:52;;;;;;;5.18;2.53;;;16.10;99.90;;;;;;6164655;23;20217;-78
2022/07/27 03:14:18;;;;;;;4.38;2.33;;;16.10;99.90;;;;;;6164081;23;20149;-80
2022/07/27 03:16:44;;;;;;;2.63;2.40;;;16.20;99.90;;;;;;6138245;23;20157;-79
2022/07/27 03:19:10;;;;;;;2.75;2.55;;;16.20;99.90;;;;;;6131762;23;20181;-78
2022/07/27 03:21:36;;;;;;;2.50;2.30;;;16.20;99.90;;;;;;6155010;23;20602;-78
2022/07/27 03:24:02;;;;;;;2.78;2.58;;;16.20;99.90;;;;;;6155579;23;20255;-77
2022/07/27 03:26:29;;;;;;;3.42;2.53;;;16.20;99.90;;;;;;6155214;23;20149;-78
2022/07/27 03:28:56;;;;;;;4.05;2.45;;;16.20;99.90;;;;;;6131874;23;20157;-80
2022/07/27 03:31:21;;;;;;;3.10;2.90;;;16.20;99.90;;;;;;6138084;23;20245;-79
2022/07/27 03:33:47;;;;;;;2.67;2.47;;;16.20;99.90;;;;;;6164308;23;20165;-79
2022/07/27 03:36:13;;;;;;;3.35;2.60;;;16.20;99.90;;;;;;6138451;23;20232;-79
2022/07/27 03:38:38;;;;;;;2.45;2.35;;;16.30;99.90;;;;;;6137708;23;20177;-79
2022/07/27 03:41:05;;;;;;;2.75;2.55;;;16.30;99.90;;;;;;6155789;23;20146;-77
2022/07/27 03:43:31;;;;;;;2.30;2.20;;;16.40;99.90;;;;;;6161987;23;20165;-79
2022/07/27 03:45:57;;;;;;;2.65;2.45;;;16.40;99.90;;;;;;6161461;23;20154;-79
2022/07/27 03:48:22;;;;;;;2.72;2.25;;;16.50;99.90;;;;;;6163391;23;20521;-79
2022/07/27 03:50:48;;;;;;;2.63;2.47;;;16.50;99.90;;;;;;6134447;23;20157;-78
2022/07/27 03:53:14;;;;;;;5.05;2.50;;;16.50;99.90;;;;;;6162242;23;20208;-79
2022/07/27 03:55:40;;;;;;;3.40;2.72;;;16.60;99.90;;;;;;6163036;23;20188;-79
2022/07/27 03:58:05;;;;;;;2.92;2.60;;;16.70;99.90;;;;;;6156691;23;20555;-77
2022/07/27 04:00:31;;;;;;;2.58;2.40;;;16.70;99.90;;;;;;6154586;23;20223;-77
2022/07/27 04:02:56;;;;;;;3.83;2.40;;;16.80;99.90;;;;;;6154781;23;20173;-77
2022/07/27 04:05:22;;;;;;;4.10;2.50;;;16.90;99.90;;;;;;6154417;23;20145;-76
2022/07/27 04:07:48;;;;;;;2.40;2.20;;;17.10;99.90;;;;;;6154699;23;20149;-77
2022/07/27 04:10:13;;;;;;;3.47;2.80;;;17.10;99.90;;;;;;6154526;23;20157;-77
2022/07/27 04:12:39;;;;;;;2.83;2.63;;;17.20;99.90;;;;;;6154735;23;20264;-78
2022/07/27 04:15:05;;;;;;;3.97;2.50;;;17.20;99.90;;;;;;6154626;23;20180;-76
2022/07/27 04:17:31;;;;;;;3.85;2.80;;;17.30;99.90;;;;;;6153436;23;20177;-77
2022/07/27 04:19:57;;;;;;;3.47;2.83;;;17.30;99.90;;;;;;6153577;23;20209;-78
2022/07/27 04:22:22;;;;;;;2.45;2.35;;;17.40;99.90;;;;;;6153237;23;20169;-76
2022/07/27 04:24:48;;;;;;;2.60;2.40;;;17.30;99.90;;;;;;6149599;23;20498;-76
2022/07/27 04:27:14;;;;;;;3.05;2.47;;;17.30;99.90;;;;;;6153673;23;20587;-76
2022/07/27 04:29:39;;;;;;;3.78;2.53;;;17.40;99.90;;;;;;6152850;23;20153;-76
2022/07/27 04:32:05;;;;;;;4.03;2.70;;;17.40;99.90;;;;;;6153178;23;20179;-77
2022/07/27 04:34:31;;;;;;;3.08;2.63;;;17.50;99.90;;;;;;6128196;23;20164;-77
2022/07/27 04:36:56;;;;;;;2.30;2.17;;;17.50;99.90;;;;;;6155093;23;20466;-81
2022/07/27 04:39:22;;;;;;;2.60;2.40;;;17.50;99.90;;;;;;6154455;23;20169;-76
2022/07/27 04:41:47;;;;;;;4.05;2.53;;;17.60;99.90;;;;;;6154232;23;20204;-75
2022/07/27 04:44:13;;;;;;;2.55;2.45;;;17.70;99.90;;;;;;6154738;23;20146;-75
2022/07/27 04:46:39;;;;;;;3.83;2.30;;;17.70;99.90;;;;;;6154273;23;20552;-75
2022/07/27 04:49:05;;;;;;;6.78;3.00;;;17.70;99.90;;;;;;6153816;23;20157;-77
2022/07/27 04:51:30;;;;;;;3.67;2.67;;;17.70;99.90;;;;;;6154270;23;20156;-76
2022/07/27 04:53:56;;;;;;;3.17;2.40;;;17.70;99.90;;;;;;6154256;23;20176;-76
2022/07/27 04:56:22;;;;;;;2.88;2.45;;;17.70;99.90;;;;;;6154274;23;20660;-76
2022/07/27 04:58:47;;;;;;;2.53;2.42;;;17.80;99.90;;;;;;6152885;23;20197;-77
2022/07/27 05:01:13;;;;;;;2.97;2.70;;;17.80;99.90;;;;;;6154855;23;20146;-76
2022/07/27 05:03:41;;;;;;;2.70;2.50;;;17.70;99.90;;;;;;6155580;23;20517;-77
2022/07/27 05:06:07;;;;;;;3.92;2.70;;;17.70;99.90;;;;;;6153806;23;20195;-77
2022/07/27 05:08:33;;;;;;;3.40;3.20;;;17.70;99.90;;;;;;6154322;23;20228;-77
2022/07/27 05:10:59;;;;;;;6.32;3.08;;;17.70;99.90;;;;;;6154504;23;20157;-77
2022/07/27 05:13:24;;;;;;;2.50;2.30;;;17.80;99.90;;;;;;6154126;23;20180;-77
2022/07/27 05:15:50;;;;;;;3.30;2.65;;;17.80;99.90;;;;;;6153714;23;20141;-72
2022/07/27 05:18:16;;;;;;;3.03;2.83;;;17.90;99.90;;;;;;6154570;23;20165;-75
2022/07/27 05:20:41;;;;;;;3.85;3.00;;;18.00;99.90;;;;;;6153027;23;20521;-75
2022/07/27 05:23:07;;;;;;;2.85;2.67;;;18.20;99.90;;;;;;6146846;23;20173;-77
2022/07/27 05:25:32;;;;;;;3.95;2.92;;;18.30;99.90;;;;;;6152848;23;20150;-77
2022/07/27 05:27:58;;;;;;;3.35;2.75;;;18.40;99.90;;;;;;6156528;23;20146;-78
2022/07/27 05:30:24;;;;;;;7.45;2.80;;;18.60;99.90;;;;;;6152634;23;20222;-73
2022/07/27 05:32:50;;;;;;;3.45;2.13;;;18.70;99.90;;;;;;6153591;23;20184;-73
2022/07/27 05:35:16;;;;;;;3.00;2.80;;;18.80;99.90;;;;;;6154310;23;20154;-75
2022/07/27 05:37:42;;;;;;;3.55;3.08;;;18.90;99.90;;;;;;6154390;23;20200;-75
2022/07/27 05:40:09;;;;;;;5.38;2.67;;;19.00;99.90;;;;;;6153656;23;20277;-76
2022/07/27 05:42:34;;;;;;;3.40;2.75;;;19.00;99.90;;;;;;6153464;23;20240;-76
2022/07/27 05:45:00;;;;;;;4.38;3.05;;;19.00;99.90;;;;;;6157699;23;20474;-79
2022/07/27 05:47:26;;;;;;;3.17;2.33;;;19.10;99.90;;;;;;6156711;23;20444;-79
2022/07/27 05:49:51;;;;;;;5.80;2.80;;;19.10;99.90;;;;;;6153381;23;20157;-78
2022/07/27 05:52:19;;;;;;;4.50;2.80;;;19.20;99.90;;;;;;6154608;23;20177;-80
2022/07/27 05:54:45;;;;;;;3.85;2.38;;;19.20;99.90;;;;;;6156923;23;20150;-80
2022/07/27 05:57:11;;;;;;;3.10;2.70;;;19.30;99.90;;;;;;6130524;23;20157;-78
2022/07/27 05:59:37;;;;;;;3.33;2.50;;;19.20;99.90;;;;;;6130514;23;20173;-78
2022/07/27 06:02:03;;;;;;;3.28;2.30;;;19.30;99.90;;;;;;6157949;23;20538;-80
2022/07/27 06:04:29;;;;;;;3.50;2.55;;;19.20;99.90;;;;;;6134205;23;20157;-79
2022/07/27 06:09:39;;;;;;;5.20;2.72;;;19.20;99.90;;;;;;6165474;23;20206;-85
2022/07/27 06:12:05;;;;;;;2.70;2.50;;;19.20;99.90;;;;;;6136895;23;20181;-85
2022/07/27 06:14:31;;;;;;;7.07;2.53;;;19.30;99.90;;;;;;6145242;23;20192;-83
2022/07/27 06:16:57;;;;;;;2.85;2.65;;;19.50;99.90;;;;;;6151562;23;20238;-83
2022/07/27 06:19:23;;;;;;;3.30;2.50;;;19.70;99.90;;;;;;6150060;23;20181;-85
2022/07/27 06:21:49;;;;;;;2.70;2.53;;;19.80;99.90;;;;;;6150304;23;20180;-83
2022/07/27 06:24:16;;;;;;;5.60;2.60;;;19.90;99.90;;;;;;6171010;23;20153;-84
2022/07/27 06:26:42;;;;;;;4.50;2.38;;;20.00;99.90;;;;;;6145848;23;20158;-83
2022/07/27 06:29:08;;;;;;;3.58;2.72;;;20.20;99.90;;;;;;6170908;23;20653;-83
2022/07/27 06:31:34;;;;;;;3.75;2.70;;;20.30;99.90;;;;;;6145191;23;20161;-83
2022/07/27 06:33:59;;;;;;;4.47;2.72;;;20.50;99.90;;;;;;6144005;23;20188;-83
2022/07/27 06:36:25;;;;;;;2.95;2.72;;;20.50;99.90;;;;;;6170664;23;20212;-82
2022/07/27 06:38:50;;;;;;;5.07;2.90;;;20.60;99.90;;;;;;6145261;23;20354;-84
2022/07/27 06:41:16;;;;;;;5.55;2.53;;;20.70;99.90;;;;;;6167566;23;20482;-83
2022/07/27 06:43:42;;;;;;;7.13;2.70;;;21.00;99.90;;;;;;6168357;23;20686;-83
2022/07/27 06:46:11;;;;;;;4.03;2.80;;;21.30;99.90;;;;;;6177002;23;20209;-84
2022/07/27 06:48:38;;;;;;;2.42;2.22;;;21.60;99.90;;;;;;6148851;23;20673;-82
2022/07/27 06:51:03;;;;;;;6.50;2.67;;;21.80;99.90;;;;;;6142829;23;20158;-83
2022/07/27 06:53:29;;;;;;;3.08;2.38;;;22.10;99.90;;;;;;6167756;23;20180;-84
2022/07/27 06:55:57;;;;;;;3.45;2.63;;;22.30;99.90;;;;;;6139151;23;20576;-83
2022/07/27 06:58:22;;;;;;;3.47;2.50;;;22.60;99.90;;;;;;6141512;23;20180;-83
2022/07/27 07:00:48;;;;;;;3.00;2.63;;;22.80;99.80;;;;;;6140646;23;20178;-82
2022/07/27 07:03:14;;;;;;;5.80;2.70;;;22.80;98.80;;;;;;6168639;23;20210;-82
2022/07/27 07:05:42;;;;;;;4.60;2.55;;;22.80;98.90;;;;;;6147100;23;20386;-82
2022/07/27 07:08:10;;;;;;;3.70;2.47;;;22.60;99.20;;;;;;6147189;23;20185;-84
2022/07/27 07:10:38;;;;;;;3.35;2.30;;;22.70;98.30;;;;;;6173174;23;20607;-82
2022/07/27 07:13:05;;;;;;;2.35;2.20;;;22.60;99.00;;;;;;6148201;23;20570;-81
2022/07/27 07:15:31;;;;;;;4.20;2.90;;;22.60;98.90;;;;;;6146334;23;20161;-82
2022/07/27 07:17:57;;;;;;;2.88;2.35;;;22.60;98.90;;;;;;6168656;23;20637;-83
2022/07/27 07:20:23;;;;;;;3.13;2.70;;;22.50;99.40;;;;;;6170030;23;20173;-82
2022/07/27 07:22:49;;;;;;;6.38;2.65;;;22.50;99.30;;;;;;6142979;23;20646;-82
2022/07/27 07:25:14;;;;;;;3.03;2.67;;;22.50;99.40;;;;;;6140002;23;20301;-83
2022/07/27 07:27:40;;;;;;;2.55;2.35;;;22.60;99.20;;;;;;6138843;23;20157;-83
2022/07/27 07:30:07;;;;;;;7.63;2.47;;;22.50;99.40;;;;;;6142052;23;20257;-82
2022/07/27 07:32:32;;;;;;;4.28;2.70;;;22.60;99.00;;;;;;6165160;23;20177;-82
2022/07/27 07:34:58;;;;;;;4.07;2.67;;;22.80;98.60;;;;;;6137048;23;20561;-82
2022/07/27 07:37:23;;;;;;;4.40;2.65;;;23.20;97.40;;;;;;6134423;23;20161;-82
2022/07/27 07:39:49;;;;;;;3.47;2.95;;;23.50;97.10;;;;;;6157282;23;20240;-82
2022/07/27 07:42:15;;;;;;;2.85;2.65;;;23.80;96.40;;;;;;6132906;23;20177;-84
2022/07/27 07:44:41;;;;;;;3.60;3.30;;;23.90;95.70;;;;;;6128195;23;20508;-84
2022/07/27 07:47:08;;;;;;;3.47;2.90;;;23.70;95.80;;;;;;6156340;23;20150;-84
2022/07/27 07:49:34;;;;;;;6.65;2.90;;;23.70;95.90;;;;;;6129665;23;20500;-75
2022/07/27 07:52:00;;;;;;;2.38;2.17;;;23.80;95.50;;;;;;6154573;23;20175;-79
2022/07/27 07:54:26;;;;;;;3.35;2.78;;;24.00;95.00;;;;;;6155433;23;20224;-77
2022/07/27 07:56:52;;;;;;;2.85;2.65;;;24.20;94.60;;;;;;6153092;23;20184;-74
2022/07/27 07:59:18;;;;;;;4.97;2.90;;;24.30;93.40;;;;;;6154372;23;20181;-74
2022/07/27 08:01:44;;;;;;;8.95;3.15;;;24.50;94.20;;;;;;6153873;23;20154;-75
2022/07/27 08:04:09;;;;;;;3.10;2.80;;;24.80;93.50;;;;;;6153945;23;20606;-74
2022/07/27 08:06:35;;;;;;;6.40;3.10;;;24.90;91.70;;;;;;6153718;23;20153;-74
2022/07/27 08:09:00;;;;;;;2.90;2.70;;;24.80;91.50;;;;;;6154109;23;20212;-74
2022/07/27 08:11:27;;;;;;;3.03;2.67;;;24.90;91.50;;;;;;6154515;23;20178;-73
2022/07/27 08:13:52;;;;;;;3.45;2.58;;;25.20;90.70;;;;;;6153024;23;20219;-74
2022/07/27 08:16:18;;;;;;;6.05;3.08;;;25.40;90.20;;;;;;6153511;23;20149;-75
2022/07/27 08:18:43;;;;;;;4.53;2.70;;;25.60;89.20;;;;;;6153549;23;20146;-76
2022/07/27 08:21:09;;;;;;;2.85;2.58;;;25.90;88.10;;;;;;6153723;23;20267;-73
2022/07/27 08:23:35;;;;;;;3.47;2.72;;;26.00;87.20;;;;;;6153916;23;20173;-74
2022/07/27 08:26:01;;;;;;;3.38;2.20;;;26.10;86.60;;;;;;6153791;23;20142;-74
2022/07/27 08:28:27;;;;;;;3.30;3.00;;;26.00;87.10;;;;;;6153821;23;20607;-72
2022/07/27 08:30:52;;;;;;;3.20;2.47;;;25.90;85.50;;;;;;6153300;23;20149;-71
2022/07/27 08:33:18;;;;;;;2.90;2.70;;;25.70;84.10;;;;;;6152782;23;20227;-73
2022/07/27 08:35:44;;;;;;;3.33;2.70;;;25.90;83.30;;;;;;6153271;23;20182;-74
2022/07/27 08:38:11;;;;;;;7.72;2.55;;;26.00;85.20;;;;;;6153902;23;20153;-74
2022/07/27 08:40:37;;;;;;;2.97;2.65;;;26.10;84.50;;;;;;6126961;23;20261;-76
2022/07/27 08:43:04;;;;;;;3.63;2.58;;;26.10;85.30;;;;;;6126856;23;20224;-73
2022/07/27 08:45:30;;;;;;;3.17;2.97;;;26.10;86.40;;;;;;6149732;23;20177;-74
2022/07/27 08:47:56;;;;;;;4.10;3.60;;;26.30;83.30;;;;;;6153036;23;20182;-74
2022/07/27 08:50:22;;;;;;;3.03;2.78;;;26.40;83.30;;;;;;6153060;23;20153;-74
2022/07/27 08:53:02;;;;;;;5.05;2.63;;;26.60;83.10;;;;;;6154028;23;20473;-74
2022/07/27 08:55:32;;;;;;;7.47;2.72;;;26.90;79.70;;;;;;6126445;23;20149;-73
2022/07/27 08:57:58;;;;;;;2.60;2.35;;;26.90;77.30;;;;;;6151606;23;20177;-74
2022/07/27 09:00:26;;;;;;;4.65;2.38;;;26.80;76.00;;;;;;6152570;23;20325;-73
2022/07/27 09:02:52;;;;;;;4.68;2.35;;;26.40;76.40;;;;;;6127634;23;20185;-73
2022/07/27 09:05:18;;;;;;;2.05;1.88;;;26.20;79.30;;;;;;6153420;23;20595;-73
2022/07/27 09:07:43;;;;;;;3.33;2.33;;;26.10;78.30;;;;;;6153816;23;20156;-72
2022/07/27 09:10:10;;;;;;;2.67;2.20;;;26.20;80.60;;;;;;6153166;23;20665;-71
2022/07/27 09:12:37;;;;;;;2.30;2.20;;;26.30;80.10;;;;;;6153582;23;20264;-71
2022/07/27 09:15:13;;;;;;;2.72;2.10;;;26.50;78.30;;;;;;6152865;23;20153;-75
2022/07/27 09:17:43;;;;;;;2.13;2.00;;;26.90;76.10;;;;;;6153826;23;20157;-74
2022/07/27 09:20:17;;;;;;;3.85;1.92;;;27.40;74.20;;;;;;6152931;23;20177;-74
2022/07/27 09:22:51;;;;;;;2.35;1.70;;;27.90;71.10;;;;;;6153272;23;20513;-73
2022/07/27 09:25:25;;;;;;;2.03;1.92;;;28.40;71.50;;;;;;6153518;23;20130;-74
2022/07/27 09:27:56;;;;;;;2.20;2.00;;;29.20;67.20;;;;;;6153520;23;20191;-72
2022/07/27 09:30:23;;;;;;;1.80;1.70;;;30.00;65.30;;;;;;6153302;23;20496;-71
2022/07/27 09:33:01;;;;;;;4.55;2.08;;;30.90;62.30;;;;;;6153874;23;20169;-73
2022/07/27 09:35:34;;;;;;;1.63;1.52;;;31.40;60.00;;;;;;6155584;23;20203;-74
2022/07/27 09:38:35;;;;;;;1.60;1.50;;;32.40;58.40;;;;;;6155715;23;20145;-74
2022/07/27 09:41:05;;;;;;;5.35;1.90;;;34.10;53.80;;;;;;6064886;23;20194;-71
2022/07/27 09:43:47;;;;;;;2.03;1.60;;;34.10;51.70;;;;;;6139310;23;20207;-76
2022/07/27 09:46:13;;;;;;;1.58;1.48;;;33.60;51.70;;;;;;6128888;23;20320;-75
2022/07/27 09:48:39;;;;;;;1.65;1.55;;;33.80;52.00;;;;;;6153991;23;20176;-75
2022/07/27 09:51:07;;;;;;;2.20;1.77;;;34.50;51.70;;;;;;6129095;23;20160;-76
2022/07/27 09:53:34;;;;;;;3.88;1.75;;;34.70;50.40;;;;;;6154756;23;20243;-76
2022/07/27 09:56:12;;;;;;;2.55;1.50;;;34.80;50.90;;;;;;6155884;23;20149;-75
2022/07/27 09:58:55;;;;;;;1.88;1.77;;;34.10;49.60;;;;;;6154403;23;20222;-77
2022/07/27 10:01:23;;;;;;;3.33;1.73;;;34.30;51.70;;;;;;6154901;23;20224;-76
2022/07/27 10:03:52;;;;;;;1.75;1.65;;;35.50;48.20;;;;;;6154976;23;20310;-75
2022/07/27 10:06:17;;;;;;;2.25;1.50;;;35.80;47.20;;;;;;6128309;23;20153;-76
2022/07/27 10:08:47;;;;;;;1.55;1.45;;;35.60;47.70;;;;;;6154872;23;20195;-77
2022/07/27 10:11:14;;;;;;;1.48;1.48;;;34.70;48.00;;;;;;6155371;23;20590;-76
2022/07/27 10:13:40;;;;;;;1.80;1.70;;;33.70;49.40;;;;;;6154905;23;20173;-76
2022/07/27 10:16:12;;;;;;;3.10;2.35;;;32.60;50.50;;;;;;6155375;23;20177;-76
2022/07/27 10:19:07;;;;;;;2.15;2.05;;;31.40;52.70;;;;;;6155182;23;20148;-76
2022/07/27 10:21:35;;;;;;;1.98;1.80;;;30.50;54.40;;;;;;6153911;23;20148;-75
2022/07/27 10:24:10;;;;;;;2.90;1.80;;;29.90;54.90;;;;;;6154206;23;20172;-76
2022/07/27 10:26:40;;;;;;;2.15;1.98;;;29.40;56.00;;;;;;6154477;23;20133;-74
2022/07/27 10:29:12;;;;;;;2.30;1.83;;;29.30;56.70;;;;;;6155408;23;20172;-75
2022/07/27 10:31:54;;;;;;;2.45;2.25;;;29.30;57.20;;;;;;6153787;23;20137;-79
2022/07/27 10:34:35;;;;;;;2.47;2.30;;;29.20;57.80;;;;;;6156245;23;20137;-79
2022/07/27 10:37:12;;;;;;;2.17;2.00;;;29.30;58.90;;;;;;6155623;23;20489;-79
2022/07/27 10:39:43;;;;;;;4.93;1.77;;;29.70;57.80;;;;;;6128610;23;20574;-82
2022/07/27 10:42:29;;;;;;;1.98;1.88;;;30.70;56.60;;;;;;6155990;23;20619;-81
2022/07/27 10:45:07;;;;;;;2.45;2.25;;;32.40;53.70;;;;;;6127844;23;20204;-79
2022/07/27 10:47:38;;;;;;;1.88;1.77;;;33.70;51.50;;;;;;6128170;23;20697;-80
2022/07/27 10:50:16;;;;;;;2.63;1.88;;;36.40;47.70;;;;;;6154349;23;20183;-78
2022/07/27 10:52:55;;;;;;;2.05;1.40;;;38.00;45.00;;;;;;6129324;23;20184;-79
2022/07/27 10:55:29;;;;;;;2.88;2.25;;;38.20;43.20;;;;;;6156019;23;20172;-80
2022/07/27 10:58:18;;;;;;;4.00;1.70;;;38.40;42.90;;;;;;6129133;23;20258;-78
2022/07/27 11:00:50;;;;;;;3.33;1.63;;;37.90;43.40;;;;;;6112587;23;20950;-79
2022/07/27 11:03:26;;;;;;;2.03;1.83;;;37.30;43.70;;;;;;6156024;23;20173;-78
2022/07/27 11:06:02;;;;;;;1.63;1.45;;;36.50;44.60;;;;;;6153620;23;20152;-78
2022/07/27 11:08:31;;;;;;;1.70;1.60;;;36.10;44.60;;;;;;6153513;23;20147;-78
2022/07/27 11:10:58;;;;;;;1.58;1.45;;;35.60;45.30;;;;;;6128604;23;20187;-77
2022/07/27 11:13:25;;;;;;;2.03;1.80;;;36.00;46.50;;;;;;6154402;23;20172;-77
2022/07/27 11:15:59;;;;;;;2.00;1.50;;;37.50;45.90;;;;;;6133677;23;20161;-78
2022/07/27 11:18:26;;;;;;;1.73;1.67;;;40.00;40.90;;;;;;6134595;23;20142;-76
2022/07/27 11:20:52;;;;;;;2.22;1.33;;;41.20;39.70;;;;;;6152293;23;20273;-74
2022/07/27 11:23:22;;;;;;;1.60;1.50;;;40.90;38.80;;;;;;6153949;23;20625;-76
2022/07/27 11:26:00;;;;;;;4.53;1.60;;;40.50;39.00;;;;;;6154002;23;20181;-75
2022/07/27 11:28:31;;;;;;;1.73;1.38;;;40.10;39.10;;;;;;6155483;23;20145;-75
2022/07/27 11:30:57;;;;;;;1.15;1.08;;;41.00;38.20;;;;;;6154043;23;20602;-74
2022/07/27 11:33:23;;;;;;;1.65;1.35;;;40.60;37.90;;;;;;6152723;23;20176;-74
2022/07/27 11:35:54;;;;;;;1.83;1.20;;;39.40;38.20;;;;;;6152680;23;20371;-76
2022/07/27 11:38:20;;;;;;;5.55;1.88;;;38.20;40.30;;;;;;6154668;23;20159;-76
2022/07/27 11:40:48;;;;;;;5.78;1.88;;;36.30;42.40;;;;;;6154340;23;20718;-76
2022/07/27 11:43:40;;;;;;;1.95;1.38;;;35.40;43.80;;;;;;6154437;23;20165;-77
2022/07/27 11:46:17;;;;;;;2.55;1.50;;;34.80;43.90;;;;;;6128030;23;20195;-73
2022/07/27 11:49:07;;;;;;;1.67;1.58;;;34.50;44.30;;;;;;6127849;23;20656;-75
2022/07/27 11:51:34;;;;;;;2.70;1.40;;;34.10;45.70;;;;;;6142337;23;20160;-75
2022/07/27 11:54:05;;;;;;;2.13;1.40;;;35.30;44.40;;;;;;6153987;23;20179;-76
2022/07/27 11:56:33;;;;;;;2.95;1.30;;;37.10;41.20;;;;;;6152885;23;20582;-75
2022/07/27 11:59:00;;;;;;;1.80;1.20;;;38.70;39.60;;;;;;6152809;23;20161;-77
2022/07/27 12:01:35;;;;;;;1.80;1.20;;;39.70;37.80;;;;;;6127833;23;20236;-74
2022/07/27 12:04:05;;;;;;;2.67;1.10;;;39.50;38.10;;;;;;6152256;23;20223;-75
2022/07/27 12:06:32;;;;;;;1.25;1.15;;;38.70;38.50;;;;;;6152878;23;20632;-75
2022/07/27 12:08:59;;;;;;;3.13;1.63;;;38.80;36.50;;;;;;6151201;23;20511;-76
2022/07/27 12:11:58;;;;;;;3.63;1.40;;;37.60;39.10;;;;;;6151194;23;20148;-75
2022/07/27 12:14:34;;;;;;;1.52;1.23;;;36.10;39.90;;;;;;6146915;23;20165;-73
2022/07/27 12:17:24;;;;;;;5.25;1.33;;;35.60;40.10;;;;;;6152637;23;20148;-74
2022/07/27 12:19:57;;;;;;;2.33;1.73;;;35.60;41.40;;;;;;6152137;23;20181;-75
2022/07/27 12:22:53;;;;;;;2.35;1.40;;;36.10;40.70;;;;;;6152814;23;20169;-75
2022/07/27 12:25:22;;;;;;;1.40;1.15;;;36.30;40.50;;;;;;6148060;23;20620;-76
2022/07/27 12:27:57;;;;;;;1.17;1.10;;;37.10;40.00;;;;;;6152821;23;20188;-74
2022/07/27 12:30:33;;;;;;;1.60;1.50;;;38.60;38.70;;;;;;6152891;23;20156;-76
2022/07/27 12:33:00;;;;;;;4.43;1.83;;;39.10;38.50;;;;;;6153176;23;20196;-76
2022/07/27 12:35:28;;;;;;;1.75;1.65;;;38.50;40.00;;;;;;6153337;23;20228;-76
2022/07/27 12:38:02;;;;;;;2.58;1.40;;;38.40;39.20;;;;;;6153071;23;20671;-74
2022/07/27 12:40:29;;;;;;;5.05;1.40;;;37.70;39.50;;;;;;6126711;23;20186;-76
2022/07/27 12:43:01;;;;;;;2.90;1.60;;;36.30;40.50;;;;;;6153477;23;20223;-75
2022/07/27 12:45:33;;;;;;;1.60;1.50;;;35.00;42.40;;;;;;6153070;23;20604;-74
2022/07/27 12:48:13;;;;;;;1.83;1.60;;;34.20;43.70;;;;;;6152675;23;20157;-73
2022/07/27 12:50:40;;;;;;;2.20;1.88;;;33.50;43.60;;;;;;6152948;23;20149;-75
2022/07/27 12:53:07;;;;;;;2.95;1.65;;;33.20;46.20;;;;;;6152613;23;20225;-73
2022/07/27 12:55:35;;;;;;;2.35;2.13;;;33.00;47.10;;;;;;6153349;23;20208;-74
2022/07/27 12:58:00;;;;;;;1.95;1.70;;;33.50;47.00;;;;;;6152089;23;20171;-76
2022/07/27 13:00:30;;;;;;;2.25;1.80;;;33.60;47.00;;;;;;6152021;23;20179;-76